createdAt,value
2023-01-07T00:01:43.604Z,100497.80
2023-01-07T00:04:15.764Z,100499.60
2023-01-07T00:06:46.908Z,100500.40
2023-01-07T00:09:16.514Z,100502.80
2023-01-07T00:11:45.164Z,100505.40
2023-01-07T00:14:14.588Z,100504.00
2023-01-07T00:16:43.003Z,100501.00
2023-01-07T00:19:16.040Z,100508.40
2023-01-07T00:21:43.491Z,100505.80
2023-01-07T00:24:12.163Z,100513.60
2023-01-07T00:26:41.564Z,100510.40
2023-01-07T00:29:09.919Z,100515.00
2023-01-07T00:31:39.866Z,100513.80
2023-01-07T00:34:09.133Z,100514.20
2023-01-07T00:36:42.281Z,100521.20
2023-01-07T00:39:19.161Z,100513.20
2023-01-07T00:42:08.369Z,100514.80
2023-01-07T00:44:37.587Z,100509.00
2023-01-07T00:47:05.117Z,100510.00
2023-01-07T00:52:10.279Z,100512.00
2023-01-07T00:54:37.713Z,100510.40
2023-01-07T00:57:05.097Z,100508.20
2023-01-07T00:59:32.554Z,100514.80
2023-01-07T01:02:00.069Z,100515.40
2023-01-07T01:04:27.630Z,100514.20
2023-01-07T01:06:55.053Z,100515.60
2023-01-07T01:09:25.048Z,100517.60
2023-01-07T01:11:52.474Z,100522.20
2023-01-07T01:14:20.118Z,100519.20
2023-01-07T01:16:47.592Z,100525.40
2023-01-07T01:19:15.549Z,100519.40
2023-01-07T01:21:42.962Z,100518.80
2023-01-07T01:24:10.401Z,100520.00
2023-01-07T01:26:37.850Z,100521.00
2023-01-07T01:29:05.484Z,100516.80
2023-01-07T01:31:33.030Z,100514.00
2023-01-07T01:34:00.591Z,100515.00
2023-01-07T01:36:28.032Z,100514.60
2023-01-07T01:38:57.215Z,100510.20
2023-01-07T01:41:24.623Z,100511.20
2023-01-07T01:43:52.717Z,100511.60
2023-01-07T01:46:41.092Z,100516.40
2023-01-07T01:49:29.457Z,100513.80
2023-01-07T01:52:19.845Z,100510.20
2023-01-07T01:54:54.960Z,100507.40
2023-01-07T01:57:27.918Z,100510.00
2023-01-07T01:59:57.764Z,100505.20
2023-01-07T02:02:34.601Z,100506.00
2023-01-07T02:05:04.585Z,100511.40
2023-01-07T02:07:32.196Z,100504.40
2023-01-07T02:10:19.341Z,100512.20
2023-01-07T02:13:24.940Z,100510.00
2023-01-07T02:16:17.141Z,100508.80
2023-01-07T02:19:21.517Z,100502.60
2023-01-07T02:22:21.377Z,100495.80
2023-01-07T02:25:23.745Z,100492.80
2023-01-07T02:28:08.670Z,100494.40
2023-01-07T02:31:27.352Z,100490.00
2023-01-07T02:34:46.355Z,100485.60
2023-01-07T02:37:26.699Z,100487.60
2023-01-07T02:40:38.829Z,100492.60
2023-01-07T02:43:50.523Z,100492.60
2023-01-07T02:46:47.414Z,100499.20
2023-01-07T02:49:18.262Z,100494.80
2023-01-07T02:51:46.808Z,100499.20
2023-01-07T02:54:22.838Z,100498.00
2023-01-07T02:57:33.888Z,100491.40
2023-01-07T03:00:15.640Z,100491.40
2023-01-07T03:03:29.835Z,100492.20
2023-01-07T03:06:47.289Z,100493.60
2023-01-07T03:09:36.437Z,100492.80
2023-01-07T03:12:18.064Z,100487.80
2023-01-07T03:15:07.534Z,100489.80
2023-01-07T03:17:48.506Z,100488.00
2023-01-07T03:20:20.368Z,100486.20
2023-01-07T03:22:50.599Z,100485.60
2023-01-07T03:25:22.602Z,100487.20
2023-01-07T03:27:52.496Z,100487.20
2023-01-07T03:30:21.588Z,100492.20
2023-01-07T03:33:09.627Z,100492.60
2023-01-07T03:35:42.439Z,100488.40
2023-01-07T03:38:12.003Z,100489.00
2023-01-07T03:40:39.862Z,100489.00
2023-01-07T03:43:14.286Z,100489.60
2023-01-07T03:45:42.982Z,100486.00
2023-01-07T03:48:10.365Z,100491.00
2023-01-07T03:50:37.842Z,100494.60
2023-01-07T03:53:05.277Z,100497.00
2023-01-07T03:55:32.607Z,100494.40
2023-01-07T03:58:00.300Z,100492.20
2023-01-07T04:00:27.827Z,100486.60
2023-01-07T04:02:55.217Z,100487.20
2023-01-07T04:05:22.793Z,100484.60
2023-01-07T04:07:50.254Z,100492.00
2023-01-07T04:10:17.837Z,100492.20
2023-01-07T04:12:45.170Z,100490.60
2023-01-07T04:15:12.716Z,100494.20
2023-01-07T04:17:40.078Z,100490.60
2023-01-07T04:20:08.640Z,100488.80
2023-01-07T04:22:36.015Z,100484.20
2023-01-07T04:25:03.724Z,100485.20
2023-01-07T04:27:31.165Z,100476.60
2023-01-07T04:29:58.532Z,100476.00
2023-01-07T04:32:25.807Z,100482.20
2023-01-07T04:34:53.144Z,100480.60
2023-01-07T04:37:20.555Z,100481.00
2023-01-07T04:39:47.928Z,100483.60
2023-01-07T04:42:15.385Z,100479.20
2023-01-07T04:44:42.756Z,100478.40
2023-01-07T04:47:10.130Z,100476.20
2023-01-07T04:49:37.442Z,100474.40
2023-01-07T04:52:08.893Z,100480.20
2023-01-07T04:54:36.277Z,100479.60
2023-01-07T04:57:03.932Z,100476.40
2023-01-07T04:59:31.297Z,100483.00
2023-01-07T05:01:58.749Z,100479.20
2023-01-07T05:04:26.075Z,100479.40
2023-01-07T05:06:53.383Z,100477.80
2023-01-07T05:09:20.818Z,100476.00
2023-01-07T05:11:48.152Z,100477.60
2023-01-07T05:14:15.534Z,100481.60
2023-01-07T05:16:42.900Z,100480.40
2023-01-07T05:19:11.538Z,100478.20
2023-01-07T05:21:38.936Z,100477.40
2023-01-07T05:24:06.543Z,100477.00
2023-01-07T05:26:33.969Z,100475.80
2023-01-07T05:29:01.398Z,100477.00
2023-01-07T05:31:28.713Z,100470.80
2023-01-07T05:33:56.030Z,100470.60
2023-01-07T05:36:23.328Z,100473.20
2023-01-07T05:38:50.686Z,100479.40
2023-01-07T05:41:18.040Z,100477.60
2023-01-07T05:43:45.427Z,100479.80
2023-01-07T05:46:12.842Z,100476.20
2023-01-07T05:48:40.415Z,100482.80
2023-01-07T05:51:07.848Z,100486.20
2023-01-07T05:53:35.517Z,100483.80
2023-01-07T05:56:03.527Z,100480.20
2023-01-07T05:58:30.841Z,100478.80
2023-01-07T06:00:58.431Z,100474.60
2023-01-07T06:03:25.976Z,100477.00
2023-01-07T06:05:53.494Z,100479.80
2023-01-07T06:08:21.013Z,100483.20
2023-01-07T06:10:48.457Z,100483.20
2023-01-07T06:13:15.828Z,100481.40
2023-01-07T06:15:43.130Z,100483.20
2023-01-07T06:18:10.645Z,100482.00
2023-01-07T06:20:37.943Z,100489.00
2023-01-07T06:23:05.389Z,100484.40
2023-01-07T06:25:32.721Z,100484.40
2023-01-07T06:27:59.973Z,100486.00
2023-01-07T06:30:27.392Z,100486.20
2023-01-07T06:32:54.873Z,100487.80
2023-01-07T06:35:22.370Z,100487.00
2023-01-07T06:37:49.807Z,100489.40
2023-01-07T06:40:18.008Z,100491.20
2023-01-07T06:42:45.453Z,100491.60
2023-01-07T06:45:13.410Z,100491.80
2023-01-07T06:47:44.136Z,100491.00
2023-01-07T06:50:15.666Z,100490.40
2023-01-07T06:52:44.167Z,100487.80
2023-01-07T06:55:12.450Z,100488.20
2023-01-07T06:57:40.110Z,100487.80
2023-01-07T07:00:08.988Z,100492.40
2023-01-07T07:02:37.089Z,100494.80
2023-01-07T07:05:05.410Z,100497.20
2023-01-07T07:07:33.008Z,100497.40
2023-01-07T07:10:04.365Z,100498.60
2023-01-07T07:12:31.873Z,100492.60
2023-01-07T07:14:59.490Z,100484.20
2023-01-07T07:17:27.752Z,100482.80
2023-01-07T07:19:55.331Z,100481.20
2023-01-07T07:22:23.291Z,100484.80
2023-01-07T07:24:51.474Z,100495.00
2023-01-07T07:27:19.031Z,100493.40
2023-01-07T07:29:46.891Z,100483.60
2023-01-07T07:32:14.560Z,100480.80
2023-01-07T07:34:42.209Z,100477.00
2023-01-07T07:37:10.064Z,100476.60
2023-01-07T07:39:37.847Z,100473.00
2023-01-07T07:42:05.817Z,100473.40
2023-01-07T07:44:33.593Z,100471.40
2023-01-07T07:47:01.255Z,100467.00
2023-01-07T07:49:28.909Z,100472.80
2023-01-07T07:51:56.375Z,100474.80
2023-01-07T07:54:24.430Z,100473.60
2023-01-07T07:56:51.989Z,100478.60
2023-01-07T07:59:19.559Z,100478.20
2023-01-07T08:01:47.665Z,100474.80
2023-01-07T08:04:15.283Z,100475.80
2023-01-07T08:06:43.081Z,100468.40
2023-01-07T08:09:11.030Z,100467.60
2023-01-07T08:11:38.694Z,100466.60
2023-01-07T08:14:06.394Z,100468.80
2023-01-07T08:16:34.149Z,100476.20
2023-01-07T08:19:01.765Z,100476.80
2023-01-07T08:21:29.649Z,100472.80
2023-01-07T08:23:57.715Z,100469.40
2023-01-07T08:26:25.256Z,100468.80
2023-01-07T08:28:53.064Z,100470.60
2023-01-07T08:31:21.663Z,100469.40
2023-01-07T08:33:49.600Z,100470.20
2023-01-07T08:36:22.982Z,100470.40
2023-01-07T08:38:53.602Z,100476.40
2023-01-07T08:41:25.790Z,100477.40
2023-01-07T08:43:53.991Z,100471.20
2023-01-07T08:46:21.894Z,100473.00
2023-01-07T08:48:51.165Z,100470.00
2023-01-07T08:51:18.999Z,100468.00
2023-01-07T08:53:47.453Z,100468.20
2023-01-07T08:56:15.103Z,100462.00
2023-01-07T08:58:42.592Z,100465.20
2023-01-07T09:01:10.697Z,100466.80
2023-01-07T09:03:39.271Z,100469.20
2023-01-07T09:06:08.027Z,100469.60
2023-01-07T09:08:35.910Z,100468.80
2023-01-07T09:11:03.569Z,100469.80
2023-01-07T09:13:31.553Z,100466.60
2023-01-07T09:15:59.931Z,100468.20
2023-01-07T09:18:27.481Z,100469.20
2023-01-07T09:20:55.067Z,100469.00
2023-01-07T09:23:22.611Z,100457.20
2023-01-07T09:25:50.561Z,100456.20
2023-01-07T09:28:18.032Z,100454.60
2023-01-07T09:30:45.859Z,100458.40
2023-01-07T09:33:13.362Z,100453.40
2023-01-07T09:35:41.530Z,100453.60
2023-01-07T09:38:09.191Z,100459.20
2023-01-07T09:40:39.695Z,100457.80
2023-01-07T09:43:25.427Z,100453.80
2023-01-07T09:45:58.377Z,100459.20
2023-01-07T09:48:49.836Z,100456.00
2023-01-07T09:51:44.392Z,100457.80
2023-01-07T09:54:30.528Z,100457.20
2023-01-07T09:56:58.796Z,100451.60
2023-01-07T09:59:26.872Z,100445.40
2023-01-07T10:02:11.392Z,100448.60
2023-01-07T10:05:02.754Z,100448.20
2023-01-07T10:08:28.723Z,100445.00
2023-01-07T10:11:24.094Z,100441.80
2023-01-07T10:14:17.651Z,100435.20
2023-01-07T10:17:02.804Z,100442.20
2023-01-07T10:19:53.933Z,100434.20
2023-01-07T10:22:36.353Z,100431.20
2023-01-07T10:25:18.338Z,100428.40
2023-01-07T10:27:48.979Z,100424.40
2023-01-07T10:30:24.869Z,100423.20
2023-01-07T10:33:32.112Z,100421.40
2023-01-07T10:36:28.573Z,100422.40
2023-01-07T10:39:17.911Z,100420.00
2023-01-07T10:42:20.092Z,100413.60
2023-01-07T10:45:27.062Z,100416.20
2023-01-07T10:53:35.567Z,100399.40
2023-01-07T10:56:31.572Z,100391.40
2023-01-07T10:59:00.157Z,100387.80
2023-01-07T11:01:35.483Z,100380.40
2023-01-07T11:04:17.693Z,100377.40
2023-01-07T11:06:54.881Z,100371.60
2023-01-07T11:09:39.754Z,100369.80
2023-01-07T11:12:38.573Z,100372.60
2023-01-07T11:15:20.631Z,100370.60
2023-01-07T11:17:53.996Z,100360.60
2023-01-07T11:20:49.454Z,100363.00
2023-01-07T11:23:36.299Z,100355.20
2023-01-07T11:26:22.773Z,100355.60
2023-01-07T11:29:13.831Z,100354.80
2023-01-07T11:31:56.947Z,100352.60
2023-01-07T11:34:34.411Z,100344.40
2023-01-07T11:37:03.907Z,100344.20
2023-01-07T11:39:36.354Z,100342.80
2023-01-07T11:42:40.088Z,100337.60
2023-01-07T11:45:09.481Z,100337.40
2023-01-07T11:47:45.585Z,100337.60
2023-01-07T11:50:34.627Z,100334.60
2023-01-07T11:53:14.051Z,100333.00
2023-01-07T11:56:04.874Z,100330.40
2023-01-07T11:58:39.283Z,100331.20
2023-01-07T12:01:21.640Z,100332.40
2023-01-07T12:04:05.434Z,100326.00
2023-01-07T12:06:38.914Z,100316.80
2023-01-07T12:09:58.114Z,100318.40
2023-01-07T12:12:34.105Z,100315.40
2023-01-07T12:15:47.411Z,100316.40
2023-01-07T12:19:26.316Z,100310.00
2023-01-07T12:22:23.571Z,100301.00
2023-01-07T12:25:19.293Z,100290.00
2023-01-07T12:28:24.735Z,100293.20
2023-01-07T12:31:34.182Z,100290.60
2023-01-07T12:34:30.201Z,100288.00
2023-01-07T12:37:33.778Z,100284.20
2023-01-07T12:40:15.927Z,100283.20
2023-01-07T12:43:24.340Z,100276.80
2023-01-07T12:46:20.349Z,100277.00
2023-01-07T12:49:19.758Z,100270.00
2023-01-07T12:52:09.636Z,100266.20
2023-01-07T12:55:12.955Z,100260.60
2023-01-07T12:57:44.712Z,100259.40
2023-01-07T13:00:36.331Z,100253.80
2023-01-07T13:03:32.148Z,100255.40
2023-01-07T13:06:25.942Z,100262.40
2023-01-07T13:09:41.932Z,100255.00
2023-01-07T13:12:46.343Z,100248.80
2023-01-07T13:15:20.575Z,100244.80
2023-01-07T13:17:53.738Z,100241.80
2023-01-07T13:21:01.354Z,100239.80
2023-01-07T13:24:54.874Z,100233.60
2023-01-07T13:27:38.986Z,100228.00
2023-01-07T13:30:32.142Z,100231.20
2023-01-07T13:33:22.230Z,100225.20
2023-01-07T13:36:04.945Z,100225.40
2023-01-07T13:39:00.770Z,100224.00
2023-01-07T13:42:08.580Z,100223.00
2023-01-07T13:44:57.745Z,100225.60
2023-01-07T13:47:43.435Z,100226.40
2023-01-07T13:50:41.661Z,100222.00
2023-01-07T13:53:15.724Z,100223.00
2023-01-07T13:55:48.531Z,100226.80
2023-01-07T13:58:31.304Z,100226.80
2023-01-07T14:01:10.252Z,100231.00
2023-01-07T14:03:53.794Z,100231.40
2023-01-07T14:06:21.541Z,100231.20
2023-01-07T14:08:58.518Z,100232.60
2023-01-07T14:11:32.334Z,100235.20
2023-01-07T14:14:43.408Z,100239.40
2023-01-07T14:17:28.179Z,100238.60
2023-01-07T14:20:16.925Z,100240.80
2023-01-07T14:22:59.750Z,100241.40
2023-01-07T14:26:12.254Z,100243.40
2023-01-07T14:29:20.465Z,100242.00
2023-01-07T14:32:29.085Z,100241.60
2023-01-07T14:35:43.766Z,100233.40
2023-01-07T14:38:29.659Z,100234.80
2023-01-07T14:41:03.436Z,100230.60
2023-01-07T14:43:47.013Z,100233.60
2023-01-07T14:46:24.194Z,100226.80
2023-01-07T14:49:03.476Z,100228.40
2023-01-07T14:51:49.318Z,100224.40
2023-01-07T14:55:03.663Z,100216.80
2023-01-07T14:58:20.477Z,100214.00
2023-01-07T15:01:24.907Z,100220.00
2023-01-07T15:04:38.649Z,100220.60
2023-01-07T15:07:20.643Z,100218.60
2023-01-07T15:10:28.059Z,100213.40
2023-01-07T15:13:18.016Z,100216.80
2023-01-07T15:16:04.301Z,100220.20
2023-01-07T15:18:49.191Z,100218.20
2023-01-07T15:21:29.416Z,100217.00
2023-01-07T15:25:03.254Z,100222.40
2023-01-07T15:27:50.184Z,100216.00
2023-01-07T15:30:27.982Z,100213.20
2023-01-07T15:33:41.811Z,100214.80
2023-01-07T15:36:15.322Z,100215.00
2023-01-07T15:38:57.255Z,100212.40
2023-01-07T15:41:39.981Z,100212.00
2023-01-07T15:44:23.436Z,100211.00
2023-01-07T15:46:51.914Z,100210.20
2023-01-07T15:49:26.203Z,100211.20
2023-01-07T15:51:57.695Z,100208.00
2023-01-07T15:54:39.527Z,100202.40
2023-01-07T15:57:22.432Z,100200.40
2023-01-07T15:59:56.990Z,100196.80
2023-01-07T16:02:30.824Z,100195.00
2023-01-07T16:05:04.136Z,100200.40
2023-01-07T16:07:54.353Z,100192.20
2023-01-07T16:10:32.549Z,100191.80
2023-01-07T16:13:06.504Z,100192.20
2023-01-07T16:15:40.857Z,100186.40
2023-01-07T16:18:08.249Z,100182.60
2023-01-07T16:20:41.015Z,100184.60
2023-01-07T16:23:08.682Z,100188.20
2023-01-07T16:26:16.082Z,100189.60
2023-01-07T16:28:53.928Z,100186.80
2023-01-07T16:31:25.665Z,100190.40
2023-01-07T16:33:57.600Z,100189.40
2023-01-07T16:36:40.111Z,100185.60
2023-01-07T16:39:22.462Z,100182.40
2023-01-07T16:41:50.596Z,100181.20
2023-01-07T16:44:40.083Z,100178.20
2023-01-07T16:47:23.411Z,100176.20
2023-01-07T16:50:16.039Z,100175.40
2023-01-07T16:52:56.715Z,100169.20
2023-01-07T16:56:06.418Z,100162.80
2023-01-07T16:58:54.410Z,100161.80
2023-01-07T17:01:33.646Z,100167.00
2023-01-07T17:04:08.536Z,100169.20
2023-01-07T17:06:42.479Z,100169.00
2023-01-07T17:09:27.754Z,100165.00
2023-01-07T17:11:58.075Z,100160.60
2023-01-07T17:14:34.674Z,100162.20
2023-01-07T17:17:27.232Z,100161.20
2023-01-07T17:20:15.456Z,100153.20
2023-01-07T17:22:43.835Z,100159.40
2023-01-07T17:25:24.116Z,100156.80
2023-01-07T17:27:59.541Z,100155.60
2023-01-07T17:30:37.316Z,100156.80
2023-01-07T17:33:05.305Z,100161.40
2023-01-07T17:35:32.944Z,100162.20
2023-01-07T18:00:24.310Z,100150.60
2023-01-07T18:02:52.455Z,100154.00
2023-01-07T18:05:24.240Z,100153.20
2023-01-07T18:07:53.342Z,100148.40
2023-01-07T18:10:28.705Z,100153.60
2023-01-07T18:12:56.869Z,100145.60
2023-01-07T18:15:28.108Z,100145.80
2023-01-07T18:18:00.370Z,100144.80
2023-01-07T18:20:29.271Z,100142.80
2023-01-07T18:23:14.556Z,100146.20
2023-01-07T18:25:46.133Z,100144.80
2023-01-07T18:28:13.871Z,100139.60
2023-01-07T18:30:42.501Z,100135.20
2023-01-07T18:33:26.046Z,100132.80
2023-01-07T18:35:53.669Z,100132.00
2023-01-07T18:38:21.309Z,100133.40
2023-01-07T18:40:49.695Z,100132.20
2023-01-07T18:43:19.098Z,100135.20
2023-01-07T18:45:48.286Z,100134.80
2023-01-07T18:48:18.275Z,100136.00
2023-01-07T18:50:50.829Z,100137.00
2023-01-07T18:53:26.431Z,100134.40
2023-01-07T18:56:00.932Z,100133.40
2023-01-07T18:58:29.029Z,100136.40
2023-01-07T19:01:07.059Z,100133.80
2023-01-07T19:03:38.256Z,100133.20
2023-01-07T19:06:09.440Z,100132.00
2023-01-07T19:08:39.152Z,100131.20
2023-01-07T19:11:13.151Z,100129.80
2023-01-07T19:13:42.950Z,100131.20
2023-01-07T19:16:13.336Z,100129.80
2023-01-07T19:18:41.830Z,100130.20
2023-01-07T19:21:12.059Z,100129.40
2023-01-07T19:23:40.467Z,100124.00
2023-01-07T19:26:10.071Z,100118.80
2023-01-07T19:28:37.751Z,100116.40
2023-01-07T19:31:10.652Z,100122.20
2023-01-07T19:33:39.669Z,100125.40
2023-01-07T19:36:11.563Z,100123.80
2023-01-07T19:38:46.792Z,100117.80
2023-01-07T19:41:17.987Z,100119.20
2023-01-07T19:43:47.291Z,100116.60
2023-01-07T19:46:16.027Z,100112.60
2023-01-07T19:48:47.194Z,100110.60
2023-01-07T19:51:15.446Z,100108.00
2023-01-07T19:53:43.911Z,100112.40
2023-01-07T19:56:13.454Z,100114.20
2023-01-07T19:58:41.671Z,100110.40
2023-01-07T20:01:17.529Z,100112.20
2023-01-07T20:03:45.513Z,100112.20
2023-01-07T20:06:18.491Z,100107.00
2023-01-07T20:08:47.280Z,100105.40
2023-01-07T20:11:15.222Z,100108.80
2023-01-07T20:13:46.324Z,100107.00
2023-01-07T20:16:18.724Z,100103.60
2023-01-07T20:18:49.067Z,100096.20
2023-01-07T20:21:19.945Z,100087.60
2023-01-07T20:23:48.469Z,100083.20
2023-01-07T20:26:20.644Z,100078.80
2023-01-07T20:28:49.107Z,100083.80
2023-01-07T20:31:20.574Z,100081.60
2023-01-07T20:33:50.048Z,100083.80
2023-01-07T20:36:23.450Z,100087.40
2023-01-07T20:38:51.656Z,100083.00
2023-01-07T20:41:25.587Z,100080.80
2023-01-07T20:43:57.027Z,100074.60
2023-01-07T20:46:27.556Z,100070.40
2023-01-07T20:48:56.605Z,100066.80
2023-01-07T20:51:24.506Z,100061.60
2023-01-07T20:53:52.424Z,100058.20
2023-01-07T20:56:22.880Z,100049.40
2023-01-07T20:58:51.389Z,100052.40
2023-01-07T21:01:21.341Z,100051.60
2023-01-07T21:03:49.492Z,100046.60
2023-01-07T21:06:19.968Z,100038.40
2023-01-07T21:08:49.729Z,100037.80
2023-01-07T21:11:21.546Z,100035.80
2023-01-07T21:13:50.675Z,100029.20
2023-01-07T21:16:18.681Z,100026.40
2023-01-07T21:18:46.727Z,100019.00
2023-01-07T21:21:18.785Z,100008.00
2023-01-07T21:23:47.651Z,100003.20
2023-01-07T21:26:16.275Z,100001.80
2023-01-07T21:28:44.972Z,99996.20
2023-01-07T21:31:15.545Z,99994.60
2023-01-07T21:33:45.167Z,99990.60
2023-01-07T21:36:18.478Z,99995.60
2023-01-07T21:38:52.092Z,99987.00
2023-01-07T21:41:20.366Z,99986.00
2023-01-07T21:43:48.233Z,99974.80
2023-01-07T21:46:16.475Z,99972.20
2023-01-07T21:48:47.095Z,99977.00
2023-01-07T21:51:22.765Z,99971.80
2023-01-07T21:53:57.524Z,99962.80
2023-01-07T21:56:32.428Z,99962.00
2023-01-07T21:59:00.525Z,99964.40
2023-01-07T22:01:29.349Z,99964.60
2023-01-07T22:03:59.529Z,99964.80
2023-01-07T22:06:31.770Z,99966.00
2023-01-07T22:09:06.978Z,99968.60
2023-01-07T22:11:38.288Z,99967.60
2023-01-07T22:14:05.951Z,99966.40
2023-01-07T22:16:34.577Z,99959.00
2023-01-07T22:19:02.944Z,99958.60
2023-01-07T22:21:32.012Z,99956.60
2023-01-07T22:24:00.111Z,99952.00
2023-01-07T22:26:27.536Z,99950.00
2023-01-07T22:29:02.633Z,99947.20
2023-01-07T22:31:36.049Z,99947.00
2023-01-07T22:34:06.396Z,99939.60
2023-01-07T22:36:52.798Z,99938.40
2023-01-07T22:39:29.770Z,99936.80
2023-01-07T22:42:05.132Z,99928.40
2023-01-07T22:44:44.557Z,99925.20
2023-01-07T22:47:18.928Z,99924.60
2023-01-07T22:49:48.956Z,99923.60
2023-01-07T22:52:16.975Z,99923.80
2023-01-07T22:54:45.122Z,99921.60
2023-01-07T22:57:13.956Z,99922.00
2023-01-07T22:59:41.494Z,99929.80
2023-01-07T23:02:09.620Z,99930.60
2023-01-07T23:04:37.263Z,99932.80
2023-01-07T23:07:04.885Z,99930.40
2023-01-07T23:09:35.684Z,99927.40
2023-01-07T23:12:32.666Z,99933.80
2023-01-07T23:15:03.549Z,99918.20
2023-01-07T23:17:31.119Z,99924.00
2023-01-07T23:19:58.747Z,99921.20
2023-01-07T23:22:26.345Z,99914.20
2023-01-07T23:24:54.008Z,99914.60
2023-01-07T23:27:21.573Z,99904.20
2023-01-07T23:29:49.263Z,99893.00
2023-01-07T23:32:16.718Z,99892.00
2023-01-07T23:34:44.353Z,99894.20
2023-01-07T23:37:11.855Z,99896.00
2023-01-07T23:39:39.322Z,99890.40
2023-01-07T23:42:06.791Z,99890.20
2023-01-07T23:44:34.232Z,99881.60
2023-01-07T23:47:01.890Z,99877.60
2023-01-07T23:49:29.633Z,99879.60
2023-01-07T23:51:57.627Z,99883.00
2023-01-07T23:54:31.811Z,99877.00
2023-01-07T23:56:59.296Z,99876.80
2023-01-07T23:59:26.912Z,99871.40
